Butte, MT (59701)

8:04 PM MDT on July 29, 2016 (GMT -0600)
Burning Tree Lane | | Change Station
Active Advisory: Fire Weather Watch

Elev 5486 ft 45.97 °N, 112.50 °W | Updated 12 minutes ago

Scattered Clouds
Scattered Clouds
81.0 °F
Feels Like 80 °F
N
0.0
Wind Variable Wind from SE

Today
High -- | Low -- °F
--% Chance of Precip.
Yesterday
High -- | Low -- °F
Precip. -- in
Pressure 29.88 in
Visibility 10.0 miles
Clouds Scattered Clouds 10000 ft
Heat Index 80 °F
Dew Point 45 °F
Humidity 28%
Rainfall 0.00 in
Snow Depth Not available.
6:09 AM 9:02 PM
Waning Crescent, 17% visible
METAR KBTM 300153Z AUTO 32003KT 10SM SCT100 28/04 A3005 RMK AO2 SLP117 T02830044
Pressure 29.88 in
Visibility 10.0 miles
Clouds Scattered Clouds 10000 ft
Heat Index 80 °F
Dew Point 45 °F
Humidity 28%
Rainfall 0.00 in
Snow Depth Not available.
6:09 AM 9:02 PM
Waning Crescent, 17% visible
METAR KBTM 300153Z AUTO 32003KT 10SM SCT100 28/04 A3005 RMK AO2 SLP117 T02830044

10-Day Weather Forecast

Almanac

Astronomy

Jul. 29, 2016 Rise Set
Actual Time
Civil Twilight
Nautical Twilight
Astronomical Twilight
Moon
Length of Visible Light
Length of Day
Tomorrow will be .
, % of the Moon is Illuminated

Today's Extremes

State Highs State Lows

Community

WunderPhotos

Upload Photos

1,928,481 photos uploaded!

WunderBlog® & News

Nearby

Air Quality

  Air Quality AQ Index Pollutant
Not available.

Snow Depth

Station Depth Elevation

Earthquake Activity

City Distance Mag. Time & Date
Minimum magnitude displayed is 2.5.

Coastal Water Temperatures

Place Temperature

Stations

Nearby Weather Stations

Station Location Temp. Windchill Dew Point Humidity Wind Precip. Elev Updated Type
                   

Watches & Warnings

Fire Weather Watch
Issued: 2:22 PM MDT Jul. 29, 2016 – National Weather Service

... Fire Weather Watch in effect from Sunday afternoon through
Sunday evening...

* affected area:
   fire zone 110 (deerlodge/west beaverhead)
   fire zone 111 (east beaverhead)

* winds: southwesterly sustained 20 to 25 mph with gusts of 30 to
40 mph.

* Minimum humidities: 8 to 14 percent.